Time;durP1;ratioP1;P1;durP2;ratioP2;P2;SDS_P1;SDS_P2;PMS_P1;PMS_P2;Temp;Humidity;BMP_temperature;BMP_pressure;BME280_temperature;BME280_humidity;BME280_pressure;Samples;Min_cycle;Max_cycle;Signal;HPM_P1;HPM_P2
2023/09/25 00:00:31;;;;;;;3.40;2.30;;;;;;;9.89;100.00;102038.63;5030816;28;20037;-72
2023/09/25 00:02:58;;;;;;;5.00;2.22;;;;;;;9.88;100.00;102044.13;5012862;28;20527;-72
2023/09/25 00:05:24;;;;;;;4.70;2.17;;;;;;;9.84;100.00;102034.34;5030282;28;20041;-72
2023/09/25 00:07:49;;;;;;;4.60;2.22;;;;;;;9.82;100.00;102039.88;5034837;28;20033;-72
2023/09/25 00:10:14;;;;;;;4.07;2.20;;;;;;;9.83;100.00;102040.75;5029518;28;20398;-72
2023/09/25 00:12:40;;;;;;;3.92;2.13;;;;;;;9.79;100.00;102039.16;5029189;28;20442;-72
2023/09/25 00:15:05;;;;;;;2.95;2.10;;;;;;;9.82;100.00;102039.00;5028691;28;20029;-72
2023/09/25 00:17:32;;;;;;;3.53;2.60;;;;;;;9.81;100.00;102039.97;5030326;28;20057;-72
2023/09/25 00:19:57;;;;;;;3.35;2.50;;;;;;;9.79;100.00;102037.34;5030506;28;20021;-72
2023/09/25 00:22:23;;;;;;;4.43;2.10;;;;;;;9.75;100.00;102032.13;5028663;28;20781;-72
2023/09/25 00:24:48;;;;;;;4.40;2.40;;;;;;;9.74;100.00;102046.66;5028501;28;20026;-72
2023/09/25 00:27:13;;;;;;;6.72;2.97;;;;;;;9.74;100.00;102049.38;5033884;28;20065;-72
2023/09/25 00:29:39;;;;;;;5.95;2.38;;;;;;;9.71;100.00;102054.00;5050388;28;20772;-72
2023/09/25 00:32:05;;;;;;;2.80;2.05;;;;;;;9.69;100.00;102053.19;5049788;28;20025;-72
2023/09/25 00:34:31;;;;;;;7.97;2.72;;;;;;;9.69;100.00;102053.19;5034840;28;20405;-72
2023/09/25 00:36:57;;;;;;;3.40;2.40;;;;;;;9.70;100.00;102051.38;5040822;28;20036;-71
2023/09/25 00:39:22;;;;;;;4.15;2.20;;;;;;;9.69;100.00;102050.47;5044035;28;20440;-72
2023/09/25 00:41:47;;;;;;;4.00;2.58;;;;;;;9.67;100.00;102052.41;5039709;28;20044;-72
2023/09/25 00:44:13;;;;;;;4.05;2.38;;;;;;;9.67;100.00;102056.97;5029880;28;20037;-72
2023/09/25 00:46:38;;;;;;;2.90;2.13;;;;;;;9.67;100.00;102054.25;5029441;28;20025;-72
2023/09/25 00:49:03;;;;;;;3.35;2.13;;;;;;;9.65;100.00;102054.31;5044927;28;20029;-72
2023/09/25 00:51:29;;;;;;;4.07;2.63;;;;;;;9.65;100.00;102059.75;5030070;28;20083;-72
2023/09/25 00:53:55;;;;;;;5.32;2.40;;;;;;;9.63;100.00;102058.94;5028964;28;20033;-72
2023/09/25 00:56:20;;;;;;;3.08;2.20;;;;;;;9.60;100.00;102053.66;5028862;28;20044;-72
2023/09/25 00:58:47;;;;;;;3.15;2.22;;;;;;;9.61;100.00;102050.00;5047389;28;20044;-72
2023/09/25 01:01:12;;;;;;;3.58;2.20;;;;;;;9.60;100.00;102059.06;5039885;28;20029;-72
2023/09/25 01:03:38;;;;;;;4.05;2.38;;;;;;;9.58;100.00;102058.28;5027961;28;20041;-72
2023/09/25 01:06:05;;;;;;;2.78;2.28;;;;;;;9.56;100.00;102056.59;5029190;28;20705;-71
2023/09/25 01:08:30;;;;;;;4.22;2.33;;;;;;;9.52;100.00;102064.03;5037020;28;20538;-72
2023/09/25 01:10:55;;;;;;;3.30;2.08;;;;;;;9.51;100.00;102056.81;5048602;28;20037;-72
2023/09/25 01:13:21;;;;;;;3.83;2.20;;;;;;;9.51;100.00;102061.38;5033292;28;20039;-72
2023/09/25 01:15:46;;;;;;;3.42;2.30;;;;;;;9.50;100.00;102059.59;5027557;28;20132;-72
2023/09/25 01:18:12;;;;;;;3.70;2.25;;;;;;;9.48;100.00;102067.84;5029061;28;20037;-72
2023/09/25 01:20:37;;;;;;;3.50;2.13;;;;;;;9.48;100.00;102067.84;5028613;28;20100;-72
2023/09/25 01:23:03;;;;;;;3.58;2.13;;;;;;;9.45;100.00;102060.72;5047468;28;20044;-72
2023/09/25 01:25:29;;;;;;;3.45;2.13;;;;;;;9.43;100.00;102056.31;5033972;28;20120;-72
2023/09/25 01:27:55;;;;;;;3.03;2.13;;;;;;;9.39;100.00;102050.16;5027512;28;20468;-72
2023/09/25 01:30:20;;;;;;;3.70;2.42;;;;;;;9.38;100.00;102047.53;5027767;28;20060;-72
2023/09/25 01:32:48;;;;;;;6.25;2.42;;;;;;;9.39;100.00;102055.59;5028658;28;20067;-72
2023/09/25 01:35:18;;;;;;;3.55;2.25;;;;;;;9.38;100.00;102052.94;5028436;28;20087;-72
2023/09/25 01:37:46;;;;;;;3.53;2.05;;;;;;;9.38;100.00;102050.22;5027126;28;20393;-72
2023/09/25 01:40:12;;;;;;;3.90;2.55;;;;;;;9.38;100.00;102047.53;5028063;28;20048;-73
2023/09/25 01:42:39;;;;;;;3.90;2.20;;;;;;;9.35;100.00;102042.22;5028042;28;20033;-72
2023/09/25 01:45:08;;;;;;;5.28;2.25;;;;;;;9.35;100.00;102047.66;5027724;28;20079;-72
2023/09/25 01:47:34;;;;;;;3.75;2.13;;;;;;;9.32;100.00;102047.78;5010685;28;20052;-72
2023/09/25 01:49:59;;;;;;;3.53;2.40;;;;;;;9.32;100.00;102047.78;5027830;28;20045;-72
2023/09/25 01:52:27;;;;;;;2.58;2.08;;;;;;;9.31;100.00;102049.63;5026840;28;20037;-72
2023/09/25 01:54:52;;;;;;;3.95;2.35;;;;;;;9.29;100.00;102053.38;5028024;28;20326;-72
2023/09/25 01:57:18;;;;;;;3.13;2.33;;;;;;;9.26;100.00;102045.38;5026526;28;20036;-72
2023/09/25 01:59:43;;;;;;;5.55;2.30;;;;;;;9.25;100.00;102041.78;5027044;28;20132;-72
2023/09/25 02:02:09;;;;;;;5.55;2.20;;;;;;;9.23;100.00;102038.25;5026685;28;20042;-72
2023/09/25 02:04:34;;;;;;;6.00;2.47;;;;;;;9.21;100.00;102040.16;5028125;28;20072;-71
2023/09/25 02:06:59;;;;;;;3.35;2.47;;;;;;;9.19;100.00;102042.97;5027533;28;20033;-72
2023/09/25 02:09:25;;;;;;;5.72;2.17;;;;;;;9.18;100.00;102045.72;5025479;28;20037;-72
2023/09/25 02:11:51;;;;;;;3.40;2.42;;;;;;;9.21;100.00;102032.03;5026360;28;20108;-72
2023/09/25 02:14:16;;;;;;;5.47;2.70;;;;;;;9.24;100.00;102037.31;5026604;28;20545;-72
2023/09/25 02:16:42;;;;;;;2.63;2.20;;;;;;;9.25;100.00;102032.75;5027830;28;20151;-72
2023/09/25 02:19:07;;;;;;;4.10;2.33;;;;;;;9.24;100.00;102034.59;5037948;28;20059;-72
2023/09/25 02:21:33;;;;;;;4.40;2.08;;;;;;;9.25;100.00;102030.94;5038599;28;20072;-72
2023/09/25 02:23:58;;;;;;;3.65;2.20;;;;;;;9.23;100.00;102015.66;5027713;28;20041;-72
2023/09/25 02:26:24;;;;;;;3.17;2.35;;;;;;;9.23;100.00;102021.06;5027447;28;20040;-72
2023/09/25 02:28:49;;;;;;;6.32;3.17;;;;;;;9.22;100.00;102035.63;5027745;28;20426;-72
2023/09/25 02:31:15;;;;;;;5.43;2.88;;;;;;;9.19;100.00;102033.94;5026403;28;20041;-72
2023/09/25 02:33:42;;;;;;;4.68;2.88;;;;;;;9.16;100.00;102029.53;5009976;28;20032;-71
2023/09/25 02:36:11;;;;;;;5.50;3.03;;;;;;;9.15;100.00;102033.19;5031308;28;20036;-71
2023/09/25 02:38:37;;;;;;;3.30;2.28;;;;;;;9.20;100.00;102038.41;5043906;28;20465;-72
2023/09/25 02:41:02;;;;;;;4.40;2.65;;;;;;;9.18;100.00;102035.75;5025577;28;20113;-71
2023/09/25 02:43:27;;;;;;;7.68;2.80;;;;;;;9.22;100.00;102030.19;5041850;28;20473;-72
2023/09/25 02:45:54;;;;;;;3.60;2.40;;;;;;;9.24;100.00;102033.72;5039751;28;20022;-72
2023/09/25 02:48:19;;;;;;;5.50;2.40;;;;;;;9.25;100.00;102036.34;5027640;28;20060;-72
2023/09/25 02:50:46;;;;;;;3.63;2.35;;;;;;;9.22;100.00;102031.06;5028867;28;20087;-72
2023/09/25 02:53:12;;;;;;;4.75;2.78;;;;;;;9.21;100.00;102026.59;5045963;28;20392;-72
2023/09/25 02:55:37;;;;;;;3.63;2.25;;;;;;;9.21;100.00;102026.59;5038067;28;20034;-72
2023/09/25 02:58:03;;;;;;;5.63;2.65;;;;;;;9.20;100.00;102025.72;5025915;28;20037;-72
2023/09/25 03:00:29;;;;;;;4.45;2.55;;;;;;;9.19;100.00;102028.50;5026426;28;20030;-71
2023/09/25 03:02:54;;;;;;;4.60;2.65;;;;;;;9.15;100.00;102024.19;5025641;28;20046;-72
2023/09/25 03:05:19;;;;;;;4.15;2.30;;;;;;;9.11;100.00;102022.56;5027391;28;20042;-72
2023/09/25 03:07:45;;;;;;;4.65;2.53;;;;;;;9.10;100.00;102028.94;5025469;28;20041;-72
2023/09/25 03:10:10;;;;;;;4.45;2.85;;;;;;;9.09;100.00;102021.72;5027075;28;20087;-72
2023/09/25 03:12:36;;;;;;;4.20;2.72;;;;;;;9.05;100.00;102025.56;5034697;28;20041;-72
2023/09/25 03:15:04;;;;;;;4.43;2.35;;;;;;;9.05;100.00;102034.59;5013233;28;20099;-72
2023/09/25 03:17:30;;;;;;;3.58;2.50;;;;;;;9.07;100.00;102034.50;5027472;28;20041;-72
2023/09/25 03:19:57;;;;;;;4.22;2.58;;;;;;;9.09;100.00;102038.94;5029851;28;20516;-72
2023/09/25 03:22:24;;;;;;;4.20;2.15;;;;;;;9.08;100.00;102030.84;5029246;28;20034;-72
2023/09/25 03:24:50;;;;;;;7.07;2.80;;;;;;;9.09;100.00;102025.34;5035108;28;20439;-73
2023/09/25 03:27:18;;;;;;;5.32;2.67;;;;;;;9.13;100.00;102028.78;5043372;28;20044;-72
2023/09/25 03:29:44;;;;;;;5.53;2.53;;;;;;;9.13;100.00;102026.94;5029985;28;20083;-72
2023/09/25 03:32:09;;;;;;;3.85;2.60;;;;;;;9.09;100.00;102027.16;5029506;28;20469;-72
2023/09/25 03:34:35;;;;;;;3.65;2.25;;;;;;;9.11;100.00;102030.69;5029447;28;20041;-72
2023/09/25 03:37:00;;;;;;;5.00;2.20;;;;;;;9.05;100.00;102031.00;5031510;28;20136;-72
2023/09/25 03:39:25;;;;;;;3.58;2.45;;;;;;;9.05;100.00;102033.72;5028666;28;20036;-71
2023/09/25 03:41:51;;;;;;;3.72;2.67;;;;;;;9.06;100.00;102024.63;5029026;28;20037;-72
2023/09/25 03:44:16;;;;;;;4.40;2.80;;;;;;;9.12;100.00;102027.03;5030976;28;20044;-72
2023/09/25 03:46:41;;;;;;;4.45;3.08;;;;;;;9.20;100.00;102024.84;5029090;28;20124;-72
2023/09/25 03:49:07;;;;;;;7.90;3.25;;;;;;;9.25;100.00;102024.63;5030896;28;20033;-72
2023/09/25 03:51:33;;;;;;;3.78;2.80;;;;;;;9.30;100.00;102028.88;5038881;28;20463;-72
2023/09/25 03:53:59;;;;;;;3.65;2.50;;;;;;;9.33;100.00;102031.44;5049057;28;20029;-72
2023/09/25 03:56:25;;;;;;;3.53;2.45;;;;;;;9.32;100.00;102024.22;5049012;28;20217;-71
2023/09/25 03:58:50;;;;;;;4.35;2.42;;;;;;;9.32;100.00;102034.22;5030265;28;20060;-72
2023/09/25 04:01:17;;;;;;;4.60;2.45;;;;;;;9.31;100.00;102035.19;5030185;28;20045;-72
2023/09/25 04:03:43;;;;;;;4.03;2.63;;;;;;;9.32;100.00;102034.22;5030355;28;20494;-73
2023/09/25 04:06:08;;;;;;;6.85;2.38;;;;;;;9.32;100.00;102045.06;5033755;28;20028;-72
2023/09/25 04:08:34;;;;;;;4.93;2.72;;;;;;;9.28;100.00;102036.22;5038049;28;20041;-72
2023/09/25 04:10:59;;;;;;;4.72;2.70;;;;;;;9.33;100.00;102042.31;5030077;28;20037;-72
2023/09/25 04:13:26;;;;;;;4.20;2.33;;;;;;;9.35;100.00;102036.78;5044007;28;20541;-73
2023/09/25 04:15:52;;;;;;;5.03;2.55;;;;;;;9.37;100.00;102040.31;5048842;28;20160;-72
2023/09/25 04:18:18;;;;;;;8.02;2.50;;;;;;;9.36;100.00;102042.13;5041016;28;20512;-72
2023/09/25 04:20:44;;;;;;;4.45;2.85;;;;;;;9.33;100.00;102039.59;5030939;28;20088;-72
2023/09/25 04:23:10;;;;;;;4.97;2.63;;;;;;;9.37;100.00;102043.00;5047869;28;20037;-72
2023/09/25 04:25:35;;;;;;;5.07;3.08;;;;;;;9.38;100.00;102040.25;5044773;28;20136;-72
2023/09/25 04:28:01;;;;;;;4.65;2.92;;;;;;;9.39;100.00;102032.97;5029331;28;20041;-72
2023/09/25 04:30:27;;;;;;;4.93;2.28;;;;;;;9.42;100.00;102041.00;5036633;28;20464;-72
2023/09/25 04:32:56;;;;;;;6.35;3.00;;;;;;;9.44;100.00;102045.38;5049416;28;20124;-72
2023/09/25 04:35:22;;;;;;;4.78;3.08;;;;;;;9.44;100.00;102044.50;5036967;28;20041;-72
2023/09/25 04:37:47;;;;;;;6.57;3.30;;;;;;;9.43;100.00;102045.47;5027984;28;20090;-72
2023/09/25 04:42:47;;;;;;;3.08;2.40;;;;;;;9.47;100.00;102057.06;5029285;28;20037;-72
2023/09/25 04:45:13;;;;;;;3.03;2.35;;;;;;;9.45;100.00;102052.56;5028789;28;20052;-72
2023/09/25 04:47:41;;;;;;;4.63;2.90;;;;;;;9.45;100.00;102049.84;5029552;28;20046;-72
2023/09/25 04:50:08;;;;;;;5.68;3.15;;;;;;;9.43;100.00;102054.47;5029704;28;20037;-72
2023/09/25 04:52:34;;;;;;;4.20;2.33;;;;;;;9.39;100.00;102052.88;5027887;28;20087;-72
2023/09/25 04:55:02;;;;;;;3.63;2.47;;;;;;;9.40;100.00;102053.75;5029748;28;20195;-72
2023/09/25 04:57:28;;;;;;;5.25;2.67;;;;;;;9.37;100.00;102054.78;5035751;28;20106;-72
2023/09/25 04:59:53;;;;;;;5.88;2.58;;;;;;;9.37;100.00;102056.59;5048310;28;20055;-72
2023/09/25 05:02:19;;;;;;;6.55;3.20;;;;;;;9.34;100.00;102060.34;5039037;28;20448;-72
2023/09/25 05:04:44;;;;;;;4.90;2.63;;;;;;;9.30;100.00;102060.56;5029484;28;20437;-72
2023/09/25 05:07:10;;;;;;;3.30;2.25;;;;;;;9.26;100.00;102058.97;5028606;28;20116;-72
2023/09/25 05:09:35;;;;;;;5.32;2.90;;;;;;;9.22;100.00;102063.63;5029102;28;20176;-72
2023/09/25 05:12:00;;;;;;;6.18;2.67;;;;;;;9.19;100.00;102061.97;5027990;28;20025;-72
2023/09/25 05:14:26;;;;;;;5.72;2.83;;;;;;;9.16;100.00;102058.50;5028036;28;20104;-72
2023/09/25 05:16:51;;;;;;;4.07;2.50;;;;;;;9.10;100.00;102056.09;5027448;28;20084;-72
2023/09/25 05:19:16;;;;;;;4.82;2.63;;;;;;;9.08;100.00;102064.28;5040627;28;20029;-72
2023/09/25 05:21:42;;;;;;;5.78;3.00;;;;;;;9.06;100.00;102062.63;5029203;28;20196;-72
2023/09/25 05:24:07;;;;;;;5.13;3.13;;;;;;;9.03;100.00;102062.75;5028154;28;20021;-72
2023/09/25 05:26:36;;;;;;;4.78;2.67;;;;;;;9.01;100.00;102068.25;5029088;28;20045;-72
2023/09/25 05:29:02;;;;;;;4.55;3.00;;;;;;;8.99;100.00;102070.16;5028688;28;20515;-72
2023/09/25 05:31:27;;;;;;;7.20;3.03;;;;;;;8.97;100.00;102065.75;5027974;28;20045;-72
2023/09/25 05:33:53;;;;;;;5.45;2.85;;;;;;;8.94;100.00;102067.63;5028784;28;20493;-73
2023/09/25 05:36:20;;;;;;;4.63;3.20;;;;;;;8.94;100.00;102073.06;5010588;28;20049;-72
2023/09/25 05:38:45;;;;;;;4.13;2.60;;;;;;;8.93;100.00;102071.31;5030557;28;20150;-72
2023/09/25 05:41:10;;;;;;;4.00;2.75;;;;;;;8.93;100.00;102068.59;5048184;28;20496;-72
2023/09/25 05:43:36;;;;;;;4.85;2.53;;;;;;;8.91;100.00;102059.66;5031065;28;20029;-72
2023/09/25 05:46:01;;;;;;;3.67;2.78;;;;;;;8.95;100.00;102071.22;5011445;28;20041;-72
2023/09/25 05:48:26;;;;;;;4.53;2.70;;;;;;;8.94;100.00;102073.06;5029256;28;20044;-72
2023/09/25 05:50:52;;;;;;;6.72;2.80;;;;;;;8.95;100.00;102076.66;5028316;28;20041;-73
2023/09/25 05:53:18;;;;;;;8.45;3.38;;;;;;;8.95;100.00;102073.94;5027037;28;20033;-72
2023/09/25 05:55:43;;;;;;;4.50;2.85;;;;;;;9.00;100.00;102080.06;5027763;28;20477;-72
2023/09/25 05:58:08;;;;;;;4.90;2.33;;;;;;;9.05;100.00;102079.88;5027222;28;20033;-73
2023/09/25 06:00:34;;;;;;;5.10;2.85;;;;;;;9.07;100.00;102078.81;5028354;28;20029;-72
2023/09/25 06:02:59;;;;;;;4.63;2.72;;;;;;;9.14;100.00;102082.16;5027470;28;20081;-72
2023/09/25 06:05:25;;;;;;;5.25;3.15;;;;;;;9.17;100.00;102081.97;5028239;28;20049;-72
2023/09/25 06:07:50;;;;;;;4.68;2.40;;;;;;;9.22;100.00;102088.09;5027905;28;20041;-73
2023/09/25 06:10:18;;;;;;;6.07;2.92;;;;;;;9.29;100.00;102084.13;5027787;28;20473;-72
2023/09/25 06:12:44;;;;;;;4.90;2.55;;;;;;;9.35;100.00;102085.69;5027622;28;20077;-72
2023/09/25 06:15:10;;;;;;;4.13;2.55;;;;;;;9.39;100.00;102076.44;5028318;28;20489;-72
2023/09/25 06:17:36;;;;;;;5.63;2.75;;;;;;;9.47;100.00;102079.66;5027827;28;20102;-72
2023/09/25 06:20:04;;;;;;;3.58;2.58;;;;;;;9.54;100.00;102074.81;5037506;28;20481;-71
2023/09/25 06:22:30;;;;;;;6.68;2.85;;;;;;;9.62;100.00;102069.88;5031639;28;20025;-72
2023/09/25 06:24:56;;;;;;;6.03;2.60;;;;;;;9.70;100.00;102079.44;5027663;28;20037;-73
2023/09/25 06:27:21;;;;;;;7.25;2.50;;;;;;;9.79;100.00;102078.09;5026181;28;20029;-73
2023/09/25 06:29:47;;;;;;;3.50;2.20;;;;;;;9.88;100.00;102082.19;5010489;28;20460;-72
2023/09/25 06:32:12;;;;;;;4.57;2.65;;;;;;;9.95;100.00;102073.66;5027729;28;20064;-72
2023/09/25 06:34:39;;;;;;;5.85;2.75;;;;;;;10.07;100.00;102072.16;5026198;28;20049;-72
2023/09/25 06:37:05;;;;;;;5.28;2.55;;;;;;;10.20;100.00;102083.28;5031854;28;20049;-72
2023/09/25 06:39:30;;;;;;;5.15;2.75;;;;;;;10.34;100.00;102078.03;5031120;28;20106;-72
2023/09/25 06:41:56;;;;;;;10.48;3.03;;;;;;;10.47;100.00;102079.16;5025482;28;20489;-73
2023/09/25 06:44:22;;;;;;;4.50;2.65;;;;;;;10.61;100.00;102092.06;5045845;28;20017;-73
2023/09/25 06:46:47;;;;;;;4.93;2.55;;;;;;;10.75;100.00;102087.72;5044143;28;20744;-72
2023/09/25 06:49:12;;;;;;;7.28;2.95;;;;;;;10.90;100.00;102095.06;5025644;28;20037;-72
2023/09/25 06:51:38;;;;;;;7.65;2.53;;;;;;;11.02;100.00;102090.81;5009582;28;20080;-72
2023/09/25 06:54:04;;;;;;;5.28;2.70;;;;;;;11.12;100.00;102095.66;5026497;28;20092;-72
2023/09/25 06:56:29;;;;;;;7.05;3.20;;;;;;;11.24;99.35;102088.69;5026830;28;20041;-72
2023/09/25 06:58:54;;;;;;;6.28;2.88;;;;;;;11.40;98.28;102088.69;5027647;28;20037;-73
2023/09/25 07:01:21;;;;;;;5.60;3.20;;;;;;;11.52;98.41;102088.00;5027174;28;20033;-73
2023/09/25 07:03:46;;;;;;;5.55;2.60;;;;;;;11.64;97.76;102089.16;5009269;28;20145;-73
2023/09/25 07:06:13;;;;;;;3.90;2.35;;;;;;;11.79;96.83;102096.44;5026781;28;20053;-73
2023/09/25 07:08:38;;;;;;;4.15;2.17;;;;;;;11.95;93.79;102089.19;5008872;28;20041;-73
2023/09/25 07:11:04;;;;;;;3.38;2.53;;;;;;;12.12;94.27;102081.84;5016811;28;20123;-73
2023/09/25 07:13:30;;;;;;;4.18;2.38;;;;;;;12.27;95.19;102091.84;5046315;28;20404;-73
2023/09/25 07:16:03;;;;;;;3.92;2.60;;;;;;;12.41;95.06;102083.72;5027890;28;20091;-72
2023/09/25 07:18:29;;;;;;;5.97;2.47;;;;;;;12.52;95.51;102091.25;5030520;28;20037;-73
2023/09/25 07:20:54;;;;;;;3.97;2.22;;;;;;;12.64;89.83;102087.78;5011194;28;20029;-73
2023/09/25 07:23:19;;;;;;;3.92;2.03;;;;;;;12.79;89.66;102085.09;5028002;28;20125;-72
2023/09/25 07:25:45;;;;;;;6.68;2.38;;;;;;;12.93;90.48;102076.91;5033015;28;20041;-73
2023/09/25 07:28:11;;;;;;;4.82;2.67;;;;;;;13.06;87.18;102082.47;5028192;28;20132;-73
2023/09/25 07:30:42;;;;;;;4.40;2.17;;;;;;;13.22;87.47;102086.03;5027075;28;20437;-73
2023/09/25 07:33:07;;;;;;;5.18;2.30;;;;;;;13.39;87.63;102088.56;5026986;28;20087;-72
2023/09/25 07:35:34;;;;;;;3.83;2.13;;;;;;;13.53;86.74;102077.59;5044804;28;20021;-73
2023/09/25 07:38:00;;;;;;;4.57;2.38;;;;;;;13.68;83.90;102088.50;5045079;28;20056;-72
2023/09/25 07:40:26;;;;;;;3.72;2.05;;;;;;;13.81;82.64;102074.91;5030116;28;20076;-72
2023/09/25 07:42:52;;;;;;;6.75;2.25;;;;;;;13.89;84.23;102084.34;5026595;28;20045;-73
2023/09/25 07:45:22;;;;;;;5.55;2.17;;;;;;;13.98;82.27;102077.38;5026209;28;20111;-73
2023/09/25 07:47:48;;;;;;;4.50;1.60;;;;;;;14.05;83.79;102081.47;5026536;28;20426;-72
2023/09/25 07:50:14;;;;;;;5.07;2.20;;;;;;;14.15;86.39;102081.72;5008547;28;20083;-72
2023/09/25 07:52:40;;;;;;;4.53;1.85;;;;;;;14.25;81.25;102071.91;5024840;28;20069;-72
2023/09/25 07:55:08;;;;;;;4.13;1.95;;;;;;;14.37;84.66;102075.69;5026536;28;20505;-73
2023/09/25 07:57:39;;;;;;;5.70;2.63;;;;;;;14.45;86.60;102074.13;5026535;28;20041;-73
2023/09/25 08:00:24;;;;;;;3.60;1.95;;;;;;;14.51;84.21;102087.47;5025429;28;20132;-73
2023/09/25 08:02:51;;;;;;;3.08;1.55;;;;;;;14.61;76.63;102087.69;5025606;28;20057;-73
2023/09/25 08:05:18;;;;;;;7.05;2.00;;;;;;;14.70;80.08;102094.41;5026948;28;20115;-73
2023/09/25 08:07:45;;;;;;;4.95;1.98;;;;;;;14.78;82.12;102094.72;5041268;28;20029;-73
2023/09/25 08:10:10;;;;;;;4.15;1.58;;;;;;;14.89;81.05;102083.03;5010540;28;20045;-72
2023/09/25 08:12:36;;;;;;;4.30;2.33;;;;;;;14.98;79.04;102087.84;5032575;28;20215;-73
2023/09/25 08:15:02;;;;;;;4.85;2.50;;;;;;;15.06;80.74;102088.16;5030414;28;20038;-72
2023/09/25 08:17:27;;;;;;;6.95;2.47;;;;;;;15.14;75.82;102087.63;5055150;28;20419;-72
2023/09/25 08:19:53;;;;;;;4.93;2.25;;;;;;;15.16;74.71;102091.16;5033503;28;20085;-73
2023/09/25 08:22:18;;;;;;;8.40;2.13;;;;;;;15.24;76.51;102088.69;5029720;28;20045;-74
2023/09/25 08:24:44;;;;;;;4.95;2.10;;;;;;;15.31;76.29;102085.41;5035032;28;20026;-73
2023/09/25 08:27:09;;;;;;;4.13;1.75;;;;;;;15.38;76.12;102084.97;5036597;28;20120;-73
2023/09/25 08:29:35;;;;;;;3.95;2.10;;;;;;;15.40;80.35;102092.09;5048402;28;20048;-72
2023/09/25 08:32:00;;;;;;;5.65;1.80;;;;;;;15.47;75.72;102089.78;5040998;28;20032;-73
2023/09/25 08:34:26;;;;;;;5.30;1.90;;;;;;;15.51;73.52;102083.06;5043781;28;20083;-73
2023/09/25 08:36:52;;;;;;;3.75;1.80;;;;;;;15.57;72.98;102072.56;5039046;28;20122;-73
2023/09/25 08:39:17;;;;;;;4.10;1.98;;;;;;;15.67;73.19;102075.53;5031020;28;20044;-73
2023/09/25 08:41:43;;;;;;;3.60;1.80;;;;;;;15.74;71.70;102075.91;5032488;28;20044;-73
2023/09/25 08:44:10;;;;;;;3.60;2.22;;;;;;;15.82;71.47;102073.50;5026996;28;20029;-73
2023/09/25 08:46:35;;;;;;;4.03;1.75;;;;;;;15.95;73.42;102071.56;5029179;28;20477;-73
2023/09/25 08:49:02;;;;;;;2.78;1.60;;;;;;;16.06;71.58;102066.13;5034871;28;20107;-74
2023/09/25 08:51:34;;;;;;;5.80;1.80;;;;;;;16.23;74.60;102069.47;5041009;28;20036;-73
2023/09/25 08:54:00;;;;;;;3.47;2.03;;;;;;;16.35;70.63;102065.75;5041800;28;20043;-72
2023/09/25 08:56:25;;;;;;;3.33;1.63;;;;;;;16.44;72.85;102065.06;5017636;28;20108;-72
2023/09/25 08:58:51;;;;;;;3.28;1.67;;;;;;;16.55;69.62;102067.84;5030590;28;20552;-73
2023/09/25 09:01:18;;;;;;;3.97;1.63;;;;;;;16.65;70.69;102061.63;5026999;28;20470;-73
2023/09/25 09:03:44;;;;;;;4.10;1.80;;;;;;;16.79;72.04;102059.59;5037122;28;20056;-72
2023/09/25 09:06:09;;;;;;;6.10;2.30;;;;;;;16.92;70.63;102059.47;5040616;28;20401;-73
2023/09/25 09:08:36;;;;;;;5.82;1.75;;;;;;;17.02;71.33;102068.75;5036472;28;20033;-73
2023/09/25 09:11:09;;;;;;;2.97;1.65;;;;;;;17.14;69.07;102068.75;5045595;28;20124;-72
2023/09/25 09:13:48;;;;;;;4.05;2.00;;;;;;;17.24;70.07;102070.63;5022465;28;20114;-72
2023/09/25 09:16:16;;;;;;;4.53;2.03;;;;;;;17.38;67.49;102061.25;5040541;28;20063;-72
2023/09/25 09:18:41;;;;;;;2.90;1.55;;;;;;;17.45;67.73;102065.25;5041186;28;20041;-73
2023/09/25 09:21:30;;;;;;;5.45;1.95;;;;;;;17.59;69.42;102059.47;5026696;28;20032;-73
2023/09/25 09:23:56;;;;;;;2.67;1.83;;;;;;;17.66;67.67;102053.47;5026490;28;20068;-74
2023/09/25 09:26:23;;;;;;;6.55;1.80;;;;;;;17.67;66.11;102066.22;5027752;28;20041;-74
2023/09/25 09:28:49;;;;;;;3.13;1.80;;;;;;;17.73;69.52;102065.72;5028975;28;20527;-74
2023/09/25 09:31:17;;;;;;;3.78;1.80;;;;;;;17.68;67.06;102068.00;5039108;28;20045;-73
2023/09/25 09:33:43;;;;;;;3.65;1.67;;;;;;;17.66;68.46;102072.72;5026927;28;20052;-73
2023/09/25 09:36:13;;;;;;;2.10;1.67;;;;;;;17.68;66.55;102070.75;5033380;28;20126;-73
2023/09/25 09:38:40;;;;;;;4.95;1.95;;;;;;;17.77;66.05;102056.25;5028049;28;20106;-72
2023/09/25 09:41:06;;;;;;;3.55;1.52;;;;;;;17.84;69.37;102071.22;5027664;28;20073;-74
2023/09/25 09:43:32;;;;;;;3.92;2.08;;;;;;;17.85;69.10;102068.34;5028284;28;20036;-72
2023/09/25 09:45:58;;;;;;;4.80;2.03;;;;;;;17.91;69.13;102061.47;5028860;28;20033;-73
2023/09/25 09:48:26;;;;;;;4.78;2.13;;;;;;;18.07;68.33;102061.03;5029053;28;20037;-73
2023/09/25 09:50:59;;;;;;;6.75;1.92;;;;;;;18.31;69.71;102066.31;5026768;28;20413;-73
2023/09/25 09:53:28;;;;;;;6.07;1.90;;;;;;;18.49;67.98;102074.91;5026563;28;20568;-73
2023/09/25 09:55:53;;;;;;;3.15;1.67;;;;;;;18.63;68.30;102070.94;5026121;28;20145;-73
2023/09/25 09:58:18;;;;;;;5.13;2.10;;;;;;;18.73;63.30;102083.81;5028069;28;20537;-73
2023/09/25 10:00:44;;;;;;;3.95;2.03;;;;;;;18.74;63.97;102080.03;5028512;28;20501;-73
2023/09/25 10:03:10;;;;;;;3.03;1.60;;;;;;;18.84;67.26;102074.63;5045589;28;20076;-73
2023/09/25 10:05:47;;;;;;;2.30;1.45;;;;;;;18.91;65.38;102072.19;5040709;28;20048;-73
2023/09/25 10:08:13;;;;;;;4.10;1.90;;;;;;;19.05;69.73;102072.72;5027662;28;20037;-73
2023/09/25 10:10:42;;;;;;;5.85;1.63;;;;;;;19.13;63.49;102083.06;5025156;28;20052;-73
2023/09/25 10:13:21;;;;;;;4.22;1.80;;;;;;;19.15;64.33;102072.75;5030354;28;20401;-73
2023/09/25 10:16:05;;;;;;;5.55;2.10;;;;;;;19.26;67.35;102067.16;5033063;28;20049;-73
2023/09/25 10:18:30;;;;;;;2.83;1.83;;;;;;;19.38;65.72;102076.22;5033642;28;20433;-74
2023/09/25 10:21:10;;;;;;;4.53;1.70;;;;;;;19.49;65.13;102075.22;5026187;28;20037;-73
2023/09/25 10:23:40;;;;;;;4.97;1.70;;;;;;;19.75;66.89;102067.38;5027031;28;20059;-73
2023/09/25 10:26:16;;;;;;;3.38;2.05;;;;;;;19.95;65.71;102066.41;5027169;28;20045;-73
2023/09/25 10:28:41;;;;;;;5.53;2.10;;;;;;;19.97;61.00;102063.50;5039255;28;20025;-73
2023/09/25 10:31:21;;;;;;;3.08;1.95;;;;;;;20.20;66.19;102064.13;5027431;28;20037;-72
2023/09/25 10:33:58;;;;;;;3.42;1.63;;;;;;;20.36;65.98;102068.03;5027862;28;20389;-73
2023/09/25 10:36:43;;;;;;;5.00;2.08;;;;;;;20.44;62.23;102066.47;5032629;28;20048;-73
2023/09/25 10:39:13;;;;;;;4.60;1.75;;;;;;;20.51;60.15;102068.50;5026322;28;20063;-73
2023/09/25 10:41:39;;;;;;;3.17;1.38;;;;;;;20.58;61.12;102071.56;5039763;28;20106;-73
2023/09/25 10:44:05;;;;;;;3.35;1.50;;;;;;;20.62;59.43;102065.59;5028463;28;20037;-73
2023/09/25 10:46:30;;;;;;;3.20;1.55;;;;;;;20.68;61.09;102069.66;5027395;28;20374;-73
2023/09/25 10:48:57;;;;;;;4.50;1.55;;;;;;;20.71;61.53;102060.22;5026075;28;20043;-73
2023/09/25 10:51:22;;;;;;;4.30;1.42;;;;;;;20.94;62.62;102055.19;5031310;28;20041;-73
2023/09/25 10:53:47;;;;;;;2.60;1.52;;;;;;;21.11;61.91;102062.72;5029702;28;20121;-73
2023/09/25 10:56:13;;;;;;;4.22;1.40;;;;;;;21.22;64.34;102048.72;5026888;28;20096;-73
2023/09/25 10:58:39;;;;;;;4.03;1.80;;;;;;;21.43;62.65;102056.81;5027432;28;20049;-73
2023/09/25 11:01:04;;;;;;;2.03;1.45;;;;;;;21.46;60.22;102062.06;5028721;28;20036;-73
2023/09/25 11:03:35;;;;;;;3.92;1.85;;;;;;;21.58;60.58;102062.72;5046357;28;20049;-74
2023/09/25 11:06:01;;;;;;;4.05;1.50;;;;;;;21.57;57.90;102069.28;5021751;28;20489;-73
2023/09/25 11:08:26;;;;;;;3.47;1.45;;;;;;;21.58;58.54;102071.03;5026138;28;20093;-73
2023/09/25 11:10:52;;;;;;;2.42;1.48;;;;;;;21.61;58.09;102073.50;5025663;28;20111;-73
2023/09/25 11:13:20;;;;;;;2.03;1.20;;;;;;;21.59;58.68;102073.69;5025623;28;20036;-73
2023/09/25 11:15:45;;;;;;;3.97;1.77;;;;;;;21.55;53.75;102079.66;5025659;28;20041;-74
2023/09/25 11:18:11;;;;;;;2.60;1.60;;;;;;;21.68;59.90;102070.97;5027460;28;20099;-73
2023/09/25 11:20:38;;;;;;;4.13;1.38;;;;;;;21.88;58.77;102069.88;5046676;28;20053;-73
2023/09/25 11:23:09;;;;;;;4.15;1.52;;;;;;;22.03;56.66;102071.06;5026332;28;20053;-73